sensor_id;sensor_type;location;lat;lon;timestamp;pressure;altitude;pressure_sealevel;temperature;humidity
36062;BME280;22123;52.412;20.970;2022-08-24T00:00:51;100779.34;;;18.22;100.00
36062;BME280;22123;52.412;20.970;2022-08-24T00:03:17;100782.50;;;18.19;100.00
36062;BME280;22123;52.412;20.970;2022-08-24T00:05:42;100787.34;;;18.17;100.00
36062;BME280;22123;52.412;20.970;2022-08-24T00:08:08;100782.53;;;18.12;100.00
36062;BME280;22123;52.412;20.970;2022-08-24T00:10:33;100781.06;;;18.10;100.00
36062;BME280;22123;52.412;20.970;2022-08-24T00:12:58;100776.25;;;18.05;100.00
36062;BME280;22123;52.412;20.970;2022-08-24T00:15:23;100771.03;;;18.03;100.00
36062;BME280;22123;52.412;20.970;2022-08-24T00:17:49;100781.94;;;18.03;100.00
36062;BME280;22123;52.412;20.970;2022-08-24T00:20:14;100778.34;;;18.03;100.00
36062;BME280;22123;52.412;20.970;2022-08-24T00:22:40;100777.31;;;18.04;100.00
36062;BME280;22123;52.412;20.970;2022-08-24T00:25:05;100782.75;;;18.04;100.00
36062;BME280;22123;52.412;20.970;2022-08-24T00:27:32;100777.53;;;18.02;100.00
36062;BME280;22123;52.412;20.970;2022-08-24T00:29:57;100782.38;;;18.00;100.00
36062;BME280;22123;52.412;20.970;2022-08-24T00:32:22;100779.84;;;17.99;100.00
36062;BME280;22123;52.412;20.970;2022-08-24T00:34:47;100790.09;;;17.97;100.00
36062;BME280;22123;52.412;20.970;2022-08-24T00:37:13;100789.28;;;17.96;100.00
36062;BME280;22123;52.412;20.970;2022-08-24T00:39:38;100785.31;;;17.92;100.00
36062;BME280;22123;52.412;20.970;2022-08-24T00:42:03;100791.78;;;17.91;100.00
36062;BME280;22123;52.412;20.970;2022-08-24T00:44:28;100789.25;;;17.89;100.00
36062;BME280;22123;52.412;20.970;2022-08-24T00:47:11;100792.41;;;17.86;100.00
36062;BME280;22123;52.412;20.970;2022-08-24T00:49:43;100789.91;;;17.85;100.00
36062;BME280;22123;52.412;20.970;2022-08-24T00:52:17;100780.03;;;17.84;100.00
36062;BME280;22123;52.412;20.970;2022-08-24T00:54:51;100775.63;;;17.83;100.00
36062;BME280;22123;52.412;20.970;2022-08-24T00:57:19;100777.31;;;17.84;100.00
36062;BME280;22123;52.412;20.970;2022-08-24T00:59:51;100780.03;;;17.84;100.00
36062;BME280;22123;52.412;20.970;2022-08-24T01:02:20;100779.00;;;17.85;100.00
36062;BME280;22123;52.412;20.970;2022-08-24T01:04:48;100781.09;;;17.83;100.00
36062;BME280;22123;52.412;20.970;2022-08-24T01:07:16;100776.72;;;17.82;100.00
36062;BME280;22123;52.412;20.970;2022-08-24T01:09:42;100779.88;;;17.79;100.00
36062;BME280;22123;52.412;20.970;2022-08-24T01:12:07;100781.34;;;17.75;100.00
36062;BME280;22123;52.412;20.970;2022-08-24T01:14:33;100779.84;;;17.72;100.00
36062;BME280;22123;52.412;20.970;2022-08-24T01:16:59;100774.84;;;17.69;100.00
36062;BME280;22123;52.412;20.970;2022-08-24T01:19:44;100778.22;;;17.64;100.00
36062;BME280;22123;52.412;20.970;2022-08-24T01:22:14;100782.19;;;17.62;100.00
36062;BME280;22123;52.412;20.970;2022-08-24T01:24:45;100786.16;;;17.59;100.00
36062;BME280;22123;52.412;20.970;2022-08-24T01:27:11;100785.13;;;17.53;100.00
36062;BME280;22123;52.412;20.970;2022-08-24T01:29:39;100788.25;;;17.50;100.00
36062;BME280;22123;52.412;20.970;2022-08-24T01:32:05;100793.31;;;17.47;100.00
36062;BME280;22123;52.412;20.970;2022-08-24T01:34:31;100793.69;;;17.44;100.00
36062;BME280;22123;52.412;20.970;2022-08-24T01:36:56;100794.75;;;17.43;100.00
36062;BME280;22123;52.412;20.970;2022-08-24T01:39:33;100801.44;;;17.40;100.00
36062;BME280;22123;52.412;20.970;2022-08-24T01:41:59;100807.09;;;17.38;100.00
36062;BME280;22123;52.412;20.970;2022-08-24T01:44:26;100800.41;;;17.34;100.00
36062;BME280;22123;52.412;20.970;2022-08-24T01:46:53;100807.94;;;17.32;100.00
36062;BME280;22123;52.412;20.970;2022-08-24T01:49:20;100814.63;;;17.30;100.00
36062;BME280;22123;52.412;20.970;2022-08-24T01:51:46;100813.38;;;17.26;100.00
36062;BME280;22123;52.412;20.970;2022-08-24T01:54:12;100809.19;;;17.23;100.00
36062;BME280;22123;52.412;20.970;2022-08-24T01:56:37;100814.84;;;17.21;100.00
36062;BME280;22123;52.412;20.970;2022-08-24T01:59:03;100809.59;;;17.20;100.00
36062;BME280;22123;52.412;20.970;2022-08-24T02:01:29;100810.63;;;17.19;100.00
36062;BME280;22123;52.412;20.970;2022-08-24T02:03:56;100808.97;;;17.18;100.00
36062;BME280;22123;52.412;20.970;2022-08-24T02:06:22;100810.03;;;17.17;100.00
36062;BME280;22123;52.412;20.970;2022-08-24T02:08:47;100811.06;;;17.16;100.00
36062;BME280;22123;52.412;20.970;2022-08-24T02:11:12;100810.44;;;17.14;100.00
36062;BME280;22123;52.412;20.970;2022-08-24T02:13:38;100818.81;;;17.12;100.00
36062;BME280;22123;52.412;20.970;2022-08-24T02:16:04;100817.34;;;17.10;100.00
36062;BME280;22123;52.412;20.970;2022-08-24T02:18:31;100831.13;;;17.08;100.00
36062;BME280;22123;52.412;20.970;2022-08-24T02:20:57;100825.69;;;17.08;100.00
36062;BME280;22123;52.412;20.970;2022-08-24T02:23:23;100825.69;;;17.08;100.00
36062;BME280;22123;52.412;20.970;2022-08-24T02:25:48;100822.78;;;17.10;100.00
36062;BME280;22123;52.412;20.970;2022-08-24T02:28:13;100826.53;;;17.09;100.00
36062;BME280;22123;52.412;20.970;2022-08-24T02:30:39;100832.59;;;17.04;100.00
36062;BME280;22123;52.412;20.970;2022-08-24T02:33:05;100829.66;;;16.99;100.00
36062;BME280;22123;52.412;20.970;2022-08-24T02:35:30;100824.00;;;16.94;100.00
36062;BME280;22123;52.412;20.970;2022-08-24T02:37:55;100831.75;;;16.90;100.00
36062;BME280;22123;52.412;20.970;2022-08-24T02:40:21;100829.59;;;16.85;100.00
36062;BME280;22123;52.412;20.970;2022-08-24T02:42:46;100830.84;;;16.83;100.00
36062;BME280;22123;52.412;20.970;2022-08-24T02:45:12;100832.91;;;16.81;100.00
36062;BME280;22123;52.412;20.970;2022-08-24T02:47:37;100830.63;;;16.78;100.00
36062;BME280;22123;52.412;20.970;2022-08-24T02:50:03;100837.09;;;16.77;100.00
36062;BME280;22123;52.412;20.970;2022-08-24T02:52:28;100837.94;;;16.77;100.00
36062;BME280;22123;52.412;20.970;2022-08-24T02:54:54;100838.78;;;16.78;100.00
36062;BME280;22123;52.412;20.970;2022-08-24T02:57:19;100843.59;;;16.76;100.00
36062;BME280;22123;52.412;20.970;2022-08-24T02:59:44;100846.47;;;16.67;100.00
36062;BME280;22123;52.412;20.970;2022-08-24T03:02:09;100848.53;;;16.65;100.00
36062;BME280;22123;52.412;20.970;2022-08-24T03:04:35;100850.44;;;16.65;100.00
36062;BME280;22123;52.412;20.970;2022-08-24T03:07:00;100840.22;;;16.67;100.00
36062;BME280;22123;52.412;20.970;2022-08-24T03:09:26;100836.63;;;16.66;100.00
36062;BME280;22123;52.412;20.970;2022-08-24T03:11:51;100833.91;;;16.66;100.00
36062;BME280;22123;52.412;20.970;2022-08-24T03:14:16;100843.75;;;16.67;100.00
36062;BME280;22123;52.412;20.970;2022-08-24T03:16:42;100832.88;;;16.67;100.00
36062;BME280;22123;52.412;20.970;2022-08-24T03:19:08;100840.22;;;16.67;100.00
36062;BME280;22123;52.412;20.970;2022-08-24T03:21:33;100842.06;;;16.66;100.00
36062;BME280;22123;52.412;20.970;2022-08-24T03:23:58;100844.59;;;16.68;100.00
36062;BME280;22123;52.412;20.970;2022-08-24T03:26:23;100848.78;;;16.71;100.00
36062;BME280;22123;52.412;20.970;2022-08-24T03:28:49;100836.88;;;16.72;100.00
36062;BME280;22123;52.412;20.970;2022-08-24T03:31:15;100851.28;;;16.72;100.00
36062;BME280;22123;52.412;20.970;2022-08-24T03:33:40;100848.78;;;16.71;100.00
36062;BME280;22123;52.412;20.970;2022-08-24T03:36:06;100852.31;;;16.71;100.00
36062;BME280;22123;52.412;20.970;2022-08-24T03:38:31;100857.19;;;16.76;100.00
36062;BME280;22123;52.412;20.970;2022-08-24T03:40:56;100859.50;;;16.79;100.00
36062;BME280;22123;52.412;20.970;2022-08-24T03:43:22;100859.69;;;16.84;100.00
36062;BME280;22123;52.412;20.970;2022-08-24T03:46:06;100859.09;;;16.89;100.00
36062;BME280;22123;52.412;20.970;2022-08-24T03:48:32;100861.25;;;16.93;100.00
36062;BME280;22123;52.412;20.970;2022-08-24T03:50:57;100857.25;;;16.96;100.00
36062;BME280;22123;52.412;20.970;2022-08-24T03:53:23;100860.00;;;17.02;100.00
36062;BME280;22123;52.412;20.970;2022-08-24T03:55:49;100855.41;;;17.10;100.00
36062;BME280;22123;52.412;20.970;2022-08-24T03:58:14;100859.41;;;17.14;100.00
36062;BME280;22123;52.412;20.970;2022-08-24T04:00:39;100861.28;;;17.20;100.00
36062;BME280;22123;52.412;20.970;2022-08-24T04:03:07;100857.94;;;17.25;100.00
36062;BME280;22123;52.412;20.970;2022-08-24T04:05:33;100871.97;;;17.28;100.00
36062;BME280;22123;52.412;20.970;2022-08-24T04:07:58;100876.56;;;17.28;100.00
36062;BME280;22123;52.412;20.970;2022-08-24T04:10:23;100873.84;;;17.28;100.00
36062;BME280;22123;52.412;20.970;2022-08-24T04:12:48;100865.91;;;17.33;100.00
36062;BME280;22123;52.412;20.970;2022-08-24T04:15:13;100879.75;;;17.38;100.00
36062;BME280;22123;52.412;20.970;2022-08-24T04:17:39;100879.53;;;17.40;100.00
36062;BME280;22123;52.412;20.970;2022-08-24T04:20:04;100873.88;;;17.41;100.00
36062;BME280;22123;52.412;20.970;2022-08-24T04:22:30;100872.63;;;17.44;100.00
36062;BME280;22123;52.412;20.970;2022-08-24T04:24:58;100875.78;;;17.47;100.00
36062;BME280;22123;52.412;20.970;2022-08-24T04:27:23;100885.41;;;17.50;100.00
36062;BME280;22123;52.412;20.970;2022-08-24T04:29:48;100884.34;;;17.51;100.00
36062;BME280;22123;52.412;20.970;2022-08-24T04:32:14;100886.69;;;17.54;100.00
36062;BME280;22123;52.412;20.970;2022-08-24T04:34:40;100885.41;;;17.56;100.00
36062;BME280;22123;52.412;20.970;2022-08-24T04:37:05;100889.59;;;17.59;100.00
36062;BME280;22123;52.412;20.970;2022-08-24T04:39:33;100887.53;;;17.61;100.00
36062;BME280;22123;52.412;20.970;2022-08-24T04:41:58;100888.97;;;17.64;100.00
36062;BME280;22123;52.412;20.970;2022-08-24T04:44:24;100891.09;;;17.68;100.00
36062;BME280;22123;52.412;20.970;2022-08-24T04:46:49;100888.16;;;17.70;100.00
36062;BME280;22123;52.412;20.970;2022-08-24T04:49:14;100895.47;;;17.69;100.00
36062;BME280;22123;52.412;20.970;2022-08-24T04:51:39;100901.75;;;17.70;100.00
36062;BME280;22123;52.412;20.970;2022-08-24T04:54:05;100899.88;;;17.70;100.00
36062;BME280;22123;52.412;20.970;2022-08-24T04:56:32;100895.91;;;17.73;100.00
36062;BME280;22123;52.412;20.970;2022-08-24T04:58:57;100901.97;;;17.75;100.00
36062;BME280;22123;52.412;20.970;2022-08-24T05:01:23;100908.88;;;17.78;100.00
36062;BME280;22123;52.412;20.970;2022-08-24T05:03:50;100910.16;;;17.82;100.00
36062;BME280;22123;52.412;20.970;2022-08-24T05:06:16;100913.91;;;17.87;100.00
36062;BME280;22123;52.412;20.970;2022-08-24T05:08:42;100920.22;;;17.95;100.00
36062;BME280;22123;52.412;20.970;2022-08-24T05:11:07;100917.47;;;18.01;100.00
36062;BME280;22123;52.412;20.970;2022-08-24T05:13:33;100920.44;;;18.06;100.00
36062;BME280;22123;52.412;20.970;2022-08-24T05:15:58;100921.03;;;18.15;100.00
36062;BME280;22123;52.412;20.970;2022-08-24T05:18:23;100928.59;;;18.20;100.00
36062;BME280;22123;52.412;20.970;2022-08-24T05:20:49;100920.41;;;18.27;100.00
36062;BME280;22123;52.412;20.970;2022-08-24T05:23:14;100923.09;;;18.33;100.00
36062;BME280;22123;52.412;20.970;2022-08-24T05:25:40;100923.94;;;18.40;100.00
36062;BME280;22123;52.412;20.970;2022-08-24T05:28:07;100924.13;;;18.46;100.00
36062;BME280;22123;52.412;20.970;2022-08-24T05:30:33;100913.41;;;18.51;100.00
36062;BME280;22123;52.412;20.970;2022-08-24T05:32:58;100920.53;;;18.58;100.00
36062;BME280;22123;52.412;20.970;2022-08-24T05:35:24;100913.63;;;18.63;100.00
36062;BME280;22123;52.412;20.970;2022-08-24T05:37:49;100911.91;;;18.68;100.00
36062;BME280;22123;52.412;20.970;2022-08-24T05:40:15;100904.75;;;18.74;100.00
36062;BME280;22123;52.412;20.970;2022-08-24T05:42:41;100906.00;;;18.78;100.00
36062;BME280;22123;52.412;20.970;2022-08-24T05:45:07;100909.97;;;18.82;100.00
36062;BME280;22123;52.412;20.970;2022-08-24T05:47:32;100914.78;;;18.87;100.00
36062;BME280;22123;52.412;20.970;2022-08-24T05:49:58;100898.00;;;18.90;100.00
36062;BME280;22123;52.412;20.970;2022-08-24T05:52:24;100900.91;;;18.95;100.00
36062;BME280;22123;52.412;20.970;2022-08-24T05:54:51;100894.81;;;19.00;100.00
36062;BME280;22123;52.412;20.970;2022-08-24T05:57:16;100897.09;;;19.03;100.00
36062;BME280;22123;52.412;20.970;2022-08-24T05:59:42;100892.88;;;19.07;100.00
36062;BME280;22123;52.412;20.970;2022-08-24T06:02:07;100901.03;;;19.14;100.00
36062;BME280;22123;52.412;20.970;2022-08-24T06:04:32;100894.31;;;19.16;100.00
36062;BME280;22123;52.412;20.970;2022-08-24T06:06:58;100898.88;;;19.22;100.00
36062;BME280;22123;52.412;20.970;2022-08-24T06:09:23;100895.69;;;19.32;100.00
36062;BME280;22123;52.412;20.970;2022-08-24T06:11:48;100889.56;;;19.37;100.00
36062;BME280;22123;52.412;20.970;2022-08-24T06:14:15;100884.09;;;19.37;100.00
36062;BME280;22123;52.412;20.970;2022-08-24T06:16:42;100882.84;;;19.39;100.00
36062;BME280;22123;52.412;20.970;2022-08-24T06:19:08;100882.38;;;19.42;100.00
36062;BME280;22123;52.412;20.970;2022-08-24T06:21:33;100876.25;;;19.47;100.00
36062;BME280;22123;52.412;20.970;2022-08-24T06:23:59;100886.06;;;19.55;100.00
36062;BME280;22123;52.412;20.970;2022-08-24T06:26:24;100886.41;;;19.65;100.00
36062;BME280;22123;52.412;20.970;2022-08-24T06:29:09;100875.22;;;19.73;100.00
36062;BME280;22123;52.412;20.970;2022-08-24T06:31:41;100874.13;;;19.81;100.00
36062;BME280;22123;52.412;20.970;2022-08-24T06:34:08;100889.56;;;19.94;100.00
36062;BME280;22123;52.412;20.970;2022-08-24T06:36:34;100894.06;;;20.07;100.00
36062;BME280;22123;52.412;20.970;2022-08-24T06:38:59;100892.66;;;20.23;100.00
36062;BME280;22123;52.412;20.970;2022-08-24T06:41:25;100897.13;;;20.36;100.00
36062;BME280;22123;52.412;20.970;2022-08-24T06:43:51;100891.22;;;20.39;100.00
36062;BME280;22123;52.412;20.970;2022-08-24T06:46:17;100896.75;;;20.50;100.00
36062;BME280;22123;52.412;20.970;2022-08-24T06:48:43;100898.97;;;20.60;100.00
36062;BME280;22123;52.412;20.970;2022-08-24T06:51:14;100902.88;;;20.71;100.00
36062;BME280;22123;52.412;20.970;2022-08-24T06:53:42;100900.44;;;20.81;100.00
36062;BME280;22123;52.412;20.970;2022-08-24T06:56:08;100895.31;;;20.85;100.00
36062;BME280;22123;52.412;20.970;2022-08-24T06:58:34;100895.09;;;20.87;100.00
36062;BME280;22123;52.412;20.970;2022-08-24T07:01:15;100896.47;;;20.96;100.00
36062;BME280;22123;52.412;20.970;2022-08-24T07:03:40;100916.50;;;21.08;100.00
36062;BME280;22123;52.412;20.970;2022-08-24T07:06:06;100907.13;;;21.16;100.00
36062;BME280;22123;52.412;20.970;2022-08-24T07:08:32;100916.19;;;21.16;100.00
36062;BME280;22123;52.412;20.970;2022-08-24T07:10:58;100929.63;;;21.18;100.00
36062;BME280;22123;52.412;20.970;2022-08-24T07:13:24;100930.22;;;21.20;100.00
36062;BME280;22123;52.412;20.970;2022-08-24T07:15:50;100914.38;;;21.10;100.00
36062;BME280;22123;52.412;20.970;2022-08-24T07:18:18;100924.53;;;21.22;100.00
36062;BME280;22123;52.412;20.970;2022-08-24T07:20:44;100933.19;;;21.18;100.00
36062;BME280;22123;52.412;20.970;2022-08-24T07:23:10;100935.25;;;21.23;100.00
36062;BME280;22123;52.412;20.970;2022-08-24T07:25:43;100911.06;;;21.20;100.00
36062;BME280;22123;52.412;20.970;2022-08-24T07:28:09;100931.13;;;21.32;100.00
36062;BME280;22123;52.412;20.970;2022-08-24T07:30:36;100930.66;;;21.35;100.00
36062;BME280;22123;52.412;20.970;2022-08-24T07:33:02;100948.72;;;21.55;100.00
36062;BME280;22123;52.412;20.970;2022-08-24T07:35:28;100939.13;;;21.64;100.00
36062;BME280;22123;52.412;20.970;2022-08-24T07:37:55;100951.31;;;21.80;100.00
36062;BME280;22123;52.412;20.970;2022-08-24T07:40:21;100943.66;;;21.82;100.00
36062;BME280;22123;52.412;20.970;2022-08-24T07:42:48;100949.16;;;21.82;100.00
36062;BME280;22123;52.412;20.970;2022-08-24T07:45:13;100960.00;;;21.89;100.00
36062;BME280;22123;52.412;20.970;2022-08-24T07:47:38;100962.19;;;21.99;100.00
36062;BME280;22123;52.412;20.970;2022-08-24T07:50:04;100966.84;;;22.10;100.00
36062;BME280;22123;52.412;20.970;2022-08-24T07:52:30;100963.63;;;22.13;100.00
36062;BME280;22123;52.412;20.970;2022-08-24T07:54:56;100963.88;;;22.12;100.00
36062;BME280;22123;52.412;20.970;2022-08-24T07:57:22;100963.50;;;22.20;100.00
36062;BME280;22123;52.412;20.970;2022-08-24T07:59:47;100970.78;;;22.26;100.00
36062;BME280;22123;52.412;20.970;2022-08-24T08:02:13;100979.94;;;22.32;100.00
36062;BME280;22123;52.412;20.970;2022-08-24T08:04:39;100970.69;;;22.33;100.00
36062;BME280;22123;52.412;20.970;2022-08-24T08:07:04;100973.31;;;22.39;100.00
36062;BME280;22123;52.412;20.970;2022-08-24T08:09:32;100980.47;;;22.52;100.00
36062;BME280;22123;52.412;20.970;2022-08-24T08:11:57;100970.00;;;22.49;100.00
36062;BME280;22123;52.412;20.970;2022-08-24T08:14:22;100973.56;;;22.50;100.00
36062;BME280;22123;52.412;20.970;2022-08-24T08:16:48;100976.19;;;22.56;100.00
36062;BME280;22123;52.412;20.970;2022-08-24T08:19:14;100981.19;;;22.60;100.00
36062;BME280;22123;52.412;20.970;2022-08-24T08:21:44;100973.66;;;22.55;100.00
36062;BME280;22123;52.412;20.970;2022-08-24T08:24:28;100981.53;;;22.51;100.00
36062;BME280;22123;52.412;20.970;2022-08-24T08:26:54;100968.41;;;22.42;100.00
36062;BME280;22123;52.412;20.970;2022-08-24T08:29:19;100975.69;;;22.48;100.00
36062;BME280;22123;52.412;20.970;2022-08-24T08:31:45;100980.22;;;22.54;100.00
36062;BME280;22123;52.412;20.970;2022-08-24T08:34:11;100981.06;;;22.54;100.00
36062;BME280;22123;52.412;20.970;2022-08-24T08:36:38;100982.25;;;22.58;100.00
36062;BME280;22123;52.412;20.970;2022-08-24T08:39:08;100969.25;;;22.54;100.00
36062;BME280;22123;52.412;20.970;2022-08-24T08:42:00;100978.19;;;22.61;100.00
36062;BME280;22123;52.412;20.970;2022-08-24T08:56:28;100989.84;;;22.92;100.00
36062;BME280;22123;52.412;20.970;2022-08-24T09:08:25;100984.13;;;23.34;100.00
36062;BME280;22123;52.412;20.970;2022-08-24T09:14:08;100982.00;;;23.53;100.00
36062;BME280;22123;52.412;20.970;2022-08-24T09:16:50;100989.56;;;23.46;100.00
36062;BME280;22123;52.412;20.970;2022-08-24T09:22:12;100985.94;;;23.29;100.00
36062;BME280;22123;52.412;20.970;2022-08-24T09:38:45;100988.09;;;23.26;100.00
36062;BME280;22123;52.412;20.970;2022-08-24T09:44:19;100981.31;;;23.29;100.00
36062;BME280;22123;52.412;20.970;2022-08-24T09:53:07;100984.22;;;23.85;100.00
36062;BME280;22123;52.412;20.970;2022-08-24T09:56:00;101002.19;;;24.05;100.00
36062;BME280;22123;52.412;20.970;2022-08-24T09:58:55;100987.19;;;24.29;100.00
36062;BME280;22123;52.412;20.970;2022-08-24T10:01:35;100994.00;;;24.44;100.00
36062;BME280;22123;52.412;20.970;2022-08-24T10:06:37;100988.50;;;24.44;100.00
36062;BME280;22123;52.412;20.970;2022-08-24T10:09:33;100976.75;;;24.48;100.00
36062;BME280;22123;52.412;20.970;2022-08-24T10:12:12;100985.25;;;24.64;100.00
36062;BME280;22123;52.412;20.970;2022-08-24T10:14:52;100999.59;;;24.66;100.00
36062;BME280;22123;52.412;20.970;2022-08-24T10:31:04;100989.41;;;27.00;100.00
36062;BME280;22123;52.412;20.970;2022-08-24T10:33:43;100990.38;;;27.37;100.00
36062;BME280;22123;52.412;20.970;2022-08-24T10:36:48;100989.34;;;27.79;100.00
36062;BME280;22123;52.412;20.970;2022-08-24T10:45:31;100985.22;;;27.82;100.00
36062;BME280;22123;52.412;20.970;2022-08-24T10:51:17;100983.09;;;27.15;100.00
36062;BME280;22123;52.412;20.970;2022-08-24T10:53:37;100985.53;;;26.96;100.00
36062;BME280;22123;52.412;20.970;2022-08-24T10:58:44;100986.63;;;26.95;100.00
36062;BME280;22123;52.412;20.970;2022-08-24T11:01:33;100983.84;;;26.90;100.00
36062;BME280;22123;52.412;20.970;2022-08-24T11:04:12;100974.44;;;26.86;100.00
36062;BME280;22123;52.412;20.970;2022-08-24T11:07:19;100981.59;;;26.77;100.00
36062;BME280;22123;52.412;20.970;2022-08-24T11:09:56;100978.50;;;26.68;100.00
36062;BME280;22123;52.412;20.970;2022-08-24T11:12:31;100977.56;;;26.52;100.00
36062;BME280;22123;52.412;20.970;2022-08-24T11:15:00;100974.25;;;26.55;100.00
36062;BME280;22123;52.412;20.970;2022-08-24T11:17:28;100978.06;;;26.49;100.00
36062;BME280;22123;52.412;20.970;2022-08-24T11:19:56;100971.66;;;26.43;100.00
36062;BME280;22123;52.412;20.970;2022-08-24T11:22:27;100967.81;;;26.39;100.00
36062;BME280;22123;52.412;20.970;2022-08-24T11:25:05;100970.72;;;26.22;100.00
36062;BME280;22123;52.412;20.970;2022-08-24T11:27:37;100968.56;;;26.29;100.00
36062;BME280;22123;52.412;20.970;2022-08-24T11:35:23;100958.59;;;26.23;100.00
36062;BME280;22123;52.412;20.970;2022-08-24T11:37:52;100965.75;;;26.19;100.00
36062;BME280;22123;52.412;20.970;2022-08-24T11:40:21;100962.84;;;26.03;100.00
36062;BME280;22123;52.412;20.970;2022-08-24T11:43:14;100967.19;;;25.99;100.00
36062;BME280;22123;52.412;20.970;2022-08-24T11:50:57;100968.44;;;25.81;100.00
36062;BME280;22123;52.412;20.970;2022-08-24T11:53:57;100957.41;;;25.81;100.00
36062;BME280;22123;52.412;20.970;2022-08-24T11:59:02;100965.72;;;25.86;100.00
36062;BME280;22123;52.412;20.970;2022-08-24T12:01:42;100962.03;;;26.03;100.00
36062;BME280;22123;52.412;20.970;2022-08-24T12:04:16;100964.03;;;26.13;100.00
36062;BME280;22123;52.412;20.970;2022-08-24T12:07:02;100963.19;;;26.12;100.00
36062;BME280;22123;52.412;20.970;2022-08-24T12:17:20;100974.09;;;26.29;100.00
36062;BME280;22123;52.412;20.970;2022-08-24T12:19:51;100978.88;;;26.44;100.00
36062;BME280;22123;52.412;20.970;2022-08-24T12:22:20;100971.72;;;26.48;100.00
36062;BME280;22123;52.412;20.970;2022-08-24T12:24:50;100974.25;;;26.60;100.00
36062;BME280;22123;52.412;20.970;2022-08-24T12:27:22;100970.81;;;26.75;100.00
36062;BME280;22123;52.412;20.970;2022-08-24T12:30:01;100975.47;;;26.75;100.00
36062;BME280;22123;52.412;20.970;2022-08-24T12:32:37;100971.59;;;26.70;100.00
36062;BME280;22123;52.412;20.970;2022-08-24T12:35:06;100968.78;;;26.65;100.00
36062;BME280;22123;52.412;20.970;2022-08-24T12:37:42;100966.25;;;26.59;100.00
36062;BME280;22123;52.412;20.970;2022-08-24T12:40:38;100963.06;;;26.77;100.00
36062;BME280;22123;52.412;20.970;2022-08-24T12:43:10;100958.13;;;26.89;100.00
36062;BME280;22123;52.412;20.970;2022-08-24T12:45:37;100953.47;;;26.95;100.00
36062;BME280;22123;52.412;20.970;2022-08-24T12:53:39;100952.28;;;27.39;100.00
36062;BME280;22123;52.412;20.970;2022-08-24T12:56:11;100941.72;;;27.36;100.00
36062;BME280;22123;52.412;20.970;2022-08-24T12:59:00;100937.56;;;27.33;100.00
36062;BME280;22123;52.412;20.970;2022-08-24T13:01:31;100940.63;;;27.37;100.00
36062;BME280;22123;52.412;20.970;2022-08-24T13:04:35;100939.56;;;27.48;100.00
36062;BME280;22123;52.412;20.970;2022-08-24T13:07:37;100942.34;;;27.64;100.00
36062;BME280;22123;52.412;20.970;2022-08-24T13:26:16;100957.50;;;27.46;100.00
36062;BME280;22123;52.412;20.970;2022-08-24T13:28:47;100953.38;;;27.48;100.00
36062;BME280;22123;52.412;20.970;2022-08-24T13:31:25;100962.50;;;27.49;100.00
36062;BME280;22123;52.412;20.970;2022-08-24T13:40:03;100951.09;;;27.30;100.00
36062;BME280;22123;52.412;20.970;2022-08-24T13:45:36;100966.22;;;27.06;100.00
36062;BME280;22123;52.412;20.970;2022-08-24T13:59:03;100955.91;;;26.86;100.00
36062;BME280;22123;52.412;20.970;2022-08-24T14:04:09;100946.22;;;26.79;100.00
36062;BME280;22123;52.412;20.970;2022-08-24T14:06:49;100952.88;;;26.83;100.00
36062;BME280;22123;52.412;20.970;2022-08-24T14:12:00;100947.84;;;26.69;100.00
36062;BME280;22123;52.412;20.970;2022-08-24T14:17:18;100936.38;;;26.50;100.00
36062;BME280;22123;52.412;20.970;2022-08-24T14:23:20;100935.72;;;26.33;100.00
36062;BME280;22123;52.412;20.970;2022-08-24T14:25:48;100937.28;;;26.18;100.00
36062;BME280;22123;52.412;20.970;2022-08-24T14:28:41;100933.09;;;26.06;100.00
36062;BME280;22123;52.412;20.970;2022-08-24T14:33:51;100944.50;;;25.87;100.00
36062;BME280;22123;52.412;20.970;2022-08-24T14:36:27;100938.94;;;25.82;100.00
36062;BME280;22123;52.412;20.970;2022-08-24T14:39:09;100930.91;;;25.75;100.00
36062;BME280;22123;52.412;20.970;2022-08-24T14:41:55;100940.28;;;25.79;100.00
36062;BME280;22123;52.412;20.970;2022-08-24T14:44:34;100931.19;;;25.79;100.00
36062;BME280;22123;52.412;20.970;2022-08-24T14:49:55;100927.94;;;25.87;100.00
36062;BME280;22123;52.412;20.970;2022-08-24T14:52:50;100929.84;;;25.86;100.00
36062;BME280;22123;52.412;20.970;2022-08-24T15:00:22;100924.53;;;25.75;100.00
36062;BME280;22123;52.412;20.970;2022-08-24T15:10:25;100925.38;;;25.75;100.00
36062;BME280;22123;52.412;20.970;2022-08-24T15:16:10;100919.88;;;25.75;100.00
36062;BME280;22123;52.412;20.970;2022-08-24T15:21:38;100925.41;;;25.80;100.00
36062;BME280;22123;52.412;20.970;2022-08-24T15:24:16;100925.66;;;25.79;100.00
36062;BME280;22123;52.412;20.970;2022-08-24T15:27:06;100931.97;;;25.74;100.00
36062;BME280;22123;52.412;20.970;2022-08-24T15:29:46;100932.50;;;25.71;100.00
36062;BME280;22123;52.412;20.970;2022-08-24T15:32:13;100919.28;;;25.73;100.00
36062;BME280;22123;52.412;20.970;2022-08-24T15:34:52;100921.56;;;25.81;100.00
36062;BME280;22123;52.412;20.970;2022-08-24T15:37:44;100939.19;;;25.80;100.00
36062;BME280;22123;52.412;20.970;2022-08-24T15:40:36;100932.81;;;25.75;100.00